createdAt,value
2022-08-20T00:00:37.574Z,0.00
2022-08-20T00:01:37.644Z,0.00
2022-08-20T00:02:37.573Z,0.00
2022-08-20T00:03:37.567Z,0.00
2022-08-20T00:04:39.647Z,0.00
2022-08-20T00:05:37.570Z,0.00
2022-08-20T00:06:37.564Z,0.00
2022-08-20T00:07:37.562Z,0.00
2022-08-20T00:08:37.564Z,0.00
2022-08-20T00:09:37.555Z,0.00
2022-08-20T00:10:37.556Z,0.00
2022-08-20T00:11:37.557Z,0.00
2022-08-20T00:12:37.557Z,0.00
2022-08-20T00:13:37.552Z,0.00
2022-08-20T00:14:37.552Z,0.00
2022-08-20T00:15:37.556Z,0.00
2022-08-20T00:16:37.551Z,0.00
2022-08-20T00:17:37.550Z,0.00
2022-08-20T00:18:37.548Z,0.00
2022-08-20T00:19:37.545Z,0.00
2022-08-20T00:20:37.545Z,0.00
2022-08-20T00:21:37.539Z,0.00
2022-08-20T00:22:37.539Z,0.00
2022-08-20T00:23:37.540Z,0.00
2022-08-20T00:24:37.539Z,0.00
2022-08-20T00:25:37.533Z,0.00
2022-08-20T00:26:37.536Z,0.00
2022-08-20T00:27:37.532Z,0.00
2022-08-20T00:28:37.532Z,0.00
2022-08-20T00:29:37.533Z,0.00
2022-08-20T00:30:37.528Z,0.00
2022-08-20T00:31:37.528Z,0.00
2022-08-20T00:32:37.526Z,0.00
2022-08-20T00:33:37.519Z,0.00
2022-08-20T00:34:37.519Z,0.00
2022-08-20T00:35:37.520Z,0.00
2022-08-20T00:36:37.519Z,0.00
2022-08-20T00:37:37.518Z,0.00
2022-08-20T00:38:37.526Z,0.00
2022-08-20T00:39:37.541Z,0.00
2022-08-20T00:40:37.513Z,0.00
2022-08-20T00:41:37.512Z,0.00
2022-08-20T00:42:37.520Z,0.00
2022-08-20T00:43:37.508Z,0.00
2022-08-20T00:44:37.509Z,0.00
2022-08-20T00:45:37.512Z,0.00
2022-08-20T00:46:37.499Z,0.00
2022-08-20T00:47:37.503Z,0.00
2022-08-20T00:48:37.500Z,0.00
2022-08-20T00:49:37.498Z,0.00
2022-08-20T00:50:37.501Z,0.00
2022-08-20T00:51:37.498Z,0.00
2022-08-20T00:52:37.535Z,0.00
2022-08-20T00:53:37.496Z,0.00
2022-08-20T00:54:37.490Z,0.00
2022-08-20T00:55:37.490Z,0.00
2022-08-20T00:56:37.490Z,0.00
2022-08-20T00:57:51.222Z,0.00
2022-08-20T00:58:37.485Z,0.00
2022-08-20T00:59:37.484Z,0.00
2022-08-20T01:00:37.481Z,0.00
2022-08-20T01:01:54.862Z,0.00
2022-08-20T01:02:37.481Z,0.00
2022-08-20T01:03:37.481Z,0.00
2022-08-20T01:04:37.489Z,0.00
2022-08-20T01:05:37.474Z,0.00
2022-08-20T01:06:37.470Z,0.00
2022-08-20T01:07:37.510Z,0.00
2022-08-20T01:08:37.467Z,0.00
2022-08-20T01:09:57.731Z,0.00
2022-08-20T01:10:37.462Z,0.00
2022-08-20T01:11:38.057Z,0.00
2022-08-20T01:12:37.464Z,0.00
2022-08-20T01:13:37.462Z,0.00
2022-08-20T01:14:37.465Z,0.00
2022-08-20T01:15:42.562Z,0.00
2022-08-20T01:16:37.456Z,0.00
2022-08-20T01:17:37.461Z,0.00
2022-08-20T01:18:37.452Z,0.00
2022-08-20T01:19:37.449Z,0.00
2022-08-20T01:20:37.451Z,0.00
2022-08-20T01:21:37.451Z,0.00
2022-08-20T01:22:37.444Z,0.00
2022-08-20T01:23:37.444Z,0.00
2022-08-20T01:24:37.441Z,0.00
2022-08-20T01:25:37.441Z,0.00
2022-08-20T01:26:37.450Z,0.00
2022-08-20T01:27:42.755Z,0.00
2022-08-20T01:28:37.435Z,0.00
2022-08-20T01:29:37.432Z,0.00
2022-08-20T01:30:37.434Z,0.00
2022-08-20T01:31:37.432Z,0.00
2022-08-20T01:32:37.435Z,0.00
2022-08-20T01:33:37.425Z,0.00
2022-08-20T01:34:37.426Z,0.00
2022-08-20T01:35:37.426Z,0.00
2022-08-20T01:36:37.424Z,0.00
2022-08-20T01:37:37.419Z,0.00
2022-08-20T01:38:37.418Z,0.00
2022-08-20T01:39:37.476Z,0.00
2022-08-20T01:40:37.418Z,0.00
2022-08-20T01:41:37.417Z,0.00
2022-08-20T01:42:37.417Z,0.00
2022-08-20T01:43:37.410Z,0.00
2022-08-20T01:44:37.417Z,0.00
2022-08-20T01:45:37.404Z,0.00
2022-08-20T01:46:37.400Z,0.00
2022-08-20T01:47:38.691Z,0.00
2022-08-20T01:48:37.420Z,0.00
2022-08-20T01:49:37.406Z,0.00
2022-08-20T01:50:37.397Z,0.00
2022-08-20T01:51:37.401Z,0.00
2022-08-20T01:52:37.396Z,0.00
2022-08-20T01:53:37.393Z,0.00
2022-08-20T01:54:37.391Z,0.00
2022-08-20T01:55:37.391Z,0.00
2022-08-20T01:56:37.392Z,0.00
2022-08-20T01:57:37.383Z,0.00
2022-08-20T01:58:37.382Z,0.00
2022-08-20T01:59:37.382Z,0.00
2022-08-20T02:00:37.378Z,0.00
2022-08-20T02:01:46.561Z,0.00
2022-08-20T02:02:37.376Z,0.00
2022-08-20T02:03:40.788Z,0.00
2022-08-20T02:04:37.409Z,0.00
2022-08-20T02:05:37.370Z,0.00
2022-08-20T02:06:37.364Z,0.00
2022-08-20T02:07:37.366Z,0.00
2022-08-20T02:08:37.362Z,0.00
2022-08-20T02:09:37.362Z,0.00
2022-08-20T02:10:37.360Z,0.00
2022-08-20T02:11:37.359Z,0.00
2022-08-20T02:12:37.359Z,0.00
2022-08-20T02:13:37.356Z,0.00
2022-08-20T02:14:37.354Z,0.00
2022-08-20T02:15:39.839Z,0.00
2022-08-20T02:16:37.345Z,0.00
2022-08-20T02:17:37.349Z,0.00
2022-08-20T02:18:37.348Z,0.00
2022-08-20T02:19:37.358Z,0.00
2022-08-20T02:20:37.344Z,0.00
2022-08-20T02:21:37.339Z,0.00
2022-08-20T02:22:37.438Z,0.00
2022-08-20T02:23:37.336Z,0.00
2022-08-20T02:24:37.335Z,0.00
2022-08-20T02:25:37.334Z,0.00
2022-08-20T02:26:37.330Z,0.00
2022-08-20T02:27:37.331Z,0.00
2022-08-20T02:28:37.328Z,0.00
2022-08-20T02:29:37.328Z,0.00
2022-08-20T02:30:37.321Z,0.00
2022-08-20T02:31:37.322Z,0.00
2022-08-20T02:32:37.316Z,0.00
2022-08-20T02:33:37.381Z,0.00
2022-08-20T02:34:37.315Z,0.00
2022-08-20T02:35:37.318Z,0.00
2022-08-20T02:36:37.312Z,0.00
2022-08-20T02:37:37.321Z,0.00
2022-08-20T02:38:37.309Z,0.00
2022-08-20T02:39:37.342Z,0.00
2022-08-20T02:40:37.305Z,0.00
2022-08-20T02:41:37.303Z,0.00
2022-08-20T02:42:37.298Z,0.00
2022-08-20T02:43:37.297Z,0.00
2022-08-20T02:44:37.296Z,0.00
2022-08-20T02:45:37.358Z,0.00
2022-08-20T02:46:37.422Z,0.00
2022-08-20T02:47:37.291Z,0.00
2022-08-20T02:48:37.286Z,0.00
2022-08-20T02:49:37.292Z,0.00
2022-08-20T02:50:37.285Z,0.00
2022-08-20T02:51:37.282Z,0.00
2022-08-20T02:52:37.282Z,0.00
2022-08-20T02:53:37.294Z,0.00
2022-08-20T02:54:37.276Z,0.00
2022-08-20T02:55:37.274Z,0.00
2022-08-20T02:56:37.272Z,0.00
2022-08-20T02:57:37.269Z,0.00
2022-08-20T02:58:37.273Z,0.00
2022-08-20T02:59:37.268Z,0.00
2022-08-20T03:00:38.287Z,0.00
2022-08-20T03:01:37.305Z,0.00
2022-08-20T03:02:37.270Z,0.00
2022-08-20T03:03:37.259Z,0.00
2022-08-20T03:04:37.256Z,0.00
2022-08-20T03:05:39.212Z,0.00
2022-08-20T03:06:37.261Z,0.00
2022-08-20T03:07:37.253Z,0.00
2022-08-20T03:08:37.250Z,0.00
2022-08-20T03:09:37.249Z,0.00
2022-08-20T03:10:37.247Z,0.00
2022-08-20T03:11:37.244Z,0.00
2022-08-20T03:12:37.242Z,0.00
2022-08-20T03:13:37.248Z,0.00
2022-08-20T03:14:37.240Z,0.00
2022-08-20T03:15:37.240Z,0.00
2022-08-20T03:16:37.243Z,0.00
2022-08-20T03:17:37.231Z,0.00
2022-08-20T03:18:37.229Z,0.00
2022-08-20T03:19:37.236Z,0.00
2022-08-20T03:20:37.230Z,0.00
2022-08-20T03:21:37.244Z,0.00
2022-08-20T03:22:37.224Z,0.00
2022-08-20T03:23:37.224Z,0.00
2022-08-20T03:24:37.224Z,0.00
2022-08-20T03:25:37.216Z,0.00
2022-08-20T03:26:37.219Z,0.00
2022-08-20T03:27:37.215Z,0.00
2022-08-20T03:28:37.224Z,0.00
2022-08-20T03:29:37.211Z,0.00
2022-08-20T03:30:37.211Z,0.00
2022-08-20T03:31:37.208Z,0.00
2022-08-20T03:32:37.204Z,0.00
2022-08-20T03:33:37.204Z,0.00
2022-08-20T03:34:37.208Z,0.00
2022-08-20T03:35:37.203Z,0.00
2022-08-20T03:36:37.203Z,0.00
2022-08-20T03:37:37.196Z,0.00
2022-08-20T03:38:37.197Z,0.00
2022-08-20T03:39:37.237Z,0.00
2022-08-20T03:40:37.192Z,0.00
2022-08-20T03:41:37.188Z,0.00
2022-08-20T03:42:37.187Z,0.00
2022-08-20T03:43:37.186Z,0.00
2022-08-20T03:44:37.198Z,0.00
2022-08-20T03:45:37.187Z,0.00
2022-08-20T03:46:37.180Z,0.00
2022-08-20T03:47:37.181Z,0.00
2022-08-20T03:48:37.176Z,0.00
2022-08-20T03:49:37.173Z,0.00
2022-08-20T03:50:37.174Z,0.00
2022-08-20T03:51:56.481Z,0.00
2022-08-20T03:52:37.168Z,0.00
2022-08-20T03:53:37.165Z,0.00
2022-08-20T03:54:37.165Z,0.00
2022-08-20T03:55:37.165Z,0.00
2022-08-20T03:56:37.161Z,0.00
2022-08-20T03:57:37.159Z,0.00
2022-08-20T03:58:37.158Z,0.00
2022-08-20T03:59:37.160Z,0.00
2022-08-20T04:00:37.166Z,0.00
2022-08-20T04:01:45.983Z,0.00
2022-08-20T04:02:37.153Z,0.00
2022-08-20T04:03:37.146Z,0.00
2022-08-20T04:04:37.146Z,0.00
2022-08-20T04:05:37.144Z,0.00
2022-08-20T04:06:37.142Z,0.00
2022-08-20T04:07:37.143Z,0.00
2022-08-20T04:08:37.138Z,0.00
2022-08-20T04:09:37.136Z,5.63
2022-08-20T04:10:37.142Z,5.63
2022-08-20T04:11:37.131Z,5.63
2022-08-20T04:12:37.130Z,5.63
2022-08-20T04:13:41.800Z,5.63
2022-08-20T04:14:37.127Z,5.63
2022-08-20T04:15:37.126Z,11.25
2022-08-20T04:16:37.122Z,11.25
2022-08-20T04:17:37.119Z,11.25
2022-08-20T04:18:37.118Z,11.25
2022-08-20T04:19:37.122Z,16.88
2022-08-20T04:20:37.118Z,16.88
2022-08-20T04:21:37.113Z,16.88
2022-08-20T04:22:37.114Z,16.88
2022-08-20T04:23:37.108Z,22.50
2022-08-20T04:24:37.109Z,22.50
2022-08-20T04:25:37.104Z,22.50
2022-08-20T04:26:37.105Z,22.50
2022-08-20T04:27:37.103Z,22.50
2022-08-20T04:28:37.099Z,22.50
2022-08-20T04:29:37.096Z,22.50
2022-08-20T04:30:37.098Z,22.50
2022-08-20T04:31:37.091Z,22.50
2022-08-20T04:32:37.088Z,22.50
2022-08-20T04:33:37.089Z,28.13
2022-08-20T04:34:37.091Z,28.13
2022-08-20T04:35:37.085Z,22.50
2022-08-20T04:36:37.084Z,22.50
2022-08-20T04:37:37.081Z,22.50
2022-08-20T04:38:48.446Z,22.50
2022-08-20T04:39:37.099Z,28.13
2022-08-20T04:40:37.079Z,28.13
2022-08-20T04:41:37.075Z,28.13
2022-08-20T04:42:37.079Z,28.13
2022-08-20T04:43:37.070Z,28.13
2022-08-20T04:44:37.069Z,28.13
2022-08-20T04:45:37.070Z,28.13
2022-08-20T04:46:37.066Z,28.13
2022-08-20T04:47:37.064Z,28.13
2022-08-20T04:48:37.060Z,33.75
2022-08-20T04:49:37.053Z,33.75
2022-08-20T04:50:37.056Z,33.75
2022-08-20T04:51:37.156Z,28.13
2022-08-20T04:52:37.051Z,33.75
2022-08-20T04:53:37.049Z,39.38
2022-08-20T04:54:37.048Z,39.38
2022-08-20T04:55:37.045Z,39.38
2022-08-20T04:56:37.044Z,39.38
2022-08-20T04:57:37.042Z,45.00
2022-08-20T04:58:37.039Z,45.00
2022-08-20T04:59:37.042Z,45.00
2022-08-20T05:00:37.031Z,45.00
2022-08-20T05:01:37.081Z,45.00
2022-08-20T05:02:37.032Z,50.63
2022-08-20T05:03:37.034Z,50.63
2022-08-20T05:04:37.028Z,56.25
2022-08-20T05:05:37.030Z,56.25
2022-08-20T05:06:37.023Z,61.88
2022-08-20T05:07:37.024Z,67.50
2022-08-20T05:08:37.021Z,67.50
2022-08-20T05:09:43.846Z,73.13
2022-08-20T05:10:37.019Z,73.13
2022-08-20T05:11:37.164Z,73.13
2022-08-20T05:12:37.007Z,67.50
2022-08-20T05:13:37.009Z,61.88
2022-08-20T05:14:37.015Z,61.88
2022-08-20T05:15:37.004Z,56.25
2022-08-20T05:16:37.011Z,50.63
2022-08-20T05:17:37.000Z,50.63
2022-08-20T05:18:36.998Z,45.00
2022-08-20T05:19:38.873Z,45.00
2022-08-20T05:20:36.995Z,45.00
2022-08-20T05:21:37.014Z,45.00
2022-08-20T05:22:36.994Z,45.00
2022-08-20T05:23:36.997Z,45.00
2022-08-20T05:24:36.988Z,45.00
2022-08-20T05:25:36.991Z,45.00
2022-08-20T05:26:37.000Z,45.00
2022-08-20T05:27:36.984Z,45.00
2022-08-20T05:28:51.369Z,45.00
2022-08-20T05:29:36.994Z,45.00
2022-08-20T05:30:36.974Z,50.63
2022-08-20T05:31:36.974Z,50.63
2022-08-20T05:32:44.660Z,50.63
2022-08-20T05:33:36.973Z,50.63
2022-08-20T05:34:45.632Z,56.25
2022-08-20T05:36:40.969Z,61.88
2022-08-20T05:37:40.951Z,61.88
2022-08-20T05:38:40.946Z,67.50
2022-08-20T05:39:40.999Z,67.50
2022-08-20T05:40:40.945Z,73.13
2022-08-20T05:41:40.945Z,73.13
2022-08-20T05:42:40.938Z,78.75
2022-08-20T05:43:40.941Z,78.75
2022-08-20T05:44:40.935Z,78.75
2022-08-20T05:45:40.932Z,84.38
2022-08-20T05:46:41.075Z,84.38
2022-08-20T05:47:51.303Z,90.00
2022-08-20T05:48:40.927Z,90.00
2022-08-20T05:49:40.928Z,95.63
2022-08-20T05:50:40.920Z,95.63
2022-08-20T05:51:40.925Z,101.25
2022-08-20T05:52:40.916Z,101.25
2022-08-20T05:53:40.919Z,106.88
2022-08-20T05:54:40.916Z,112.50
2022-08-20T05:55:40.912Z,112.50
2022-08-20T05:56:40.912Z,112.50
2022-08-20T05:57:40.914Z,112.50
2022-08-20T05:58:40.912Z,112.50
2022-08-20T05:59:40.907Z,112.50
2022-08-20T06:00:40.905Z,118.13
2022-08-20T06:01:40.942Z,118.13
2022-08-20T06:02:40.898Z,118.13
2022-08-20T06:03:40.898Z,118.13
2022-08-20T06:04:40.898Z,118.13
2022-08-20T06:05:40.900Z,118.13
2022-08-20T06:06:46.172Z,118.13
2022-08-20T06:07:40.893Z,112.50
2022-08-20T06:08:40.891Z,112.50
2022-08-20T06:09:44.324Z,112.50
2022-08-20T06:10:43.305Z,106.88
2022-08-20T06:11:40.890Z,106.88
2022-08-20T06:12:40.883Z,106.88
2022-08-20T06:13:40.880Z,106.88
2022-08-20T06:14:40.878Z,106.88
2022-08-20T06:15:40.877Z,106.88
2022-08-20T06:16:57.113Z,106.88
2022-08-20T06:17:40.875Z,106.88
2022-08-20T06:18:40.880Z,101.25
2022-08-20T06:19:41.672Z,101.25
2022-08-20T06:20:40.869Z,101.25
2022-08-20T06:21:40.871Z,101.25
2022-08-20T06:22:40.865Z,101.25
2022-08-20T06:23:56.897Z,101.25
2022-08-20T06:24:40.864Z,101.25
2022-08-20T06:25:40.865Z,95.63
2022-08-20T06:26:40.859Z,95.63
2022-08-20T06:27:40.858Z,101.25
2022-08-20T06:28:40.855Z,101.25
2022-08-20T06:29:40.855Z,106.88
2022-08-20T06:30:40.850Z,106.88
2022-08-20T06:31:40.851Z,112.50
2022-08-20T06:32:40.850Z,112.50
2022-08-20T06:33:40.849Z,112.50
2022-08-20T06:34:50.185Z,112.50
2022-08-20T06:35:40.843Z,106.88
2022-08-20T06:36:40.842Z,106.88
2022-08-20T06:37:40.841Z,101.25
2022-08-20T06:38:40.841Z,101.25
2022-08-20T06:39:40.872Z,101.25
2022-08-20T06:40:40.835Z,101.25
2022-08-20T06:41:40.835Z,101.25
2022-08-20T06:42:44.474Z,101.25
2022-08-20T06:43:40.834Z,101.25
2022-08-20T06:44:40.829Z,101.25
2022-08-20T06:45:40.830Z,95.63
2022-08-20T06:46:40.825Z,95.63
2022-08-20T06:47:40.823Z,95.63
2022-08-20T06:48:40.820Z,90.00
2022-08-20T06:49:40.826Z,90.00
2022-08-20T06:50:47.207Z,90.00
2022-08-20T06:51:41.472Z,90.00
2022-08-20T06:52:51.663Z,90.00
2022-08-20T06:53:40.814Z,90.00
2022-08-20T06:54:40.818Z,90.00
2022-08-20T06:55:40.812Z,90.00
2022-08-20T06:56:40.810Z,90.00
2022-08-20T06:57:40.807Z,90.00
2022-08-20T06:58:40.804Z,90.00
2022-08-20T06:59:40.805Z,90.00
2022-08-20T07:00:40.835Z,90.00
2022-08-20T07:01:40.871Z,90.00
2022-08-20T07:02:40.822Z,90.00
2022-08-20T07:03:42.124Z,90.00
2022-08-20T07:04:40.792Z,90.00
2022-08-20T07:05:40.798Z,90.00
2022-08-20T07:06:40.798Z,90.00
2022-08-20T07:07:40.791Z,90.00
2022-08-20T07:08:40.790Z,95.63
2022-08-20T07:09:40.790Z,95.63
2022-08-20T07:10:40.783Z,95.63
2022-08-20T07:11:40.784Z,95.63
2022-08-20T07:12:40.786Z,101.25
2022-08-20T07:13:40.790Z,101.25
2022-08-20T07:14:40.781Z,106.88
2022-08-20T07:15:40.779Z,106.88
2022-08-20T07:16:40.773Z,106.88
2022-08-20T07:17:40.776Z,112.50
2022-08-20T07:18:40.781Z,112.50
2022-08-20T07:19:40.771Z,112.50
2022-08-20T07:20:40.766Z,112.50
2022-08-20T07:21:40.773Z,112.50
2022-08-20T07:22:40.765Z,112.50
2022-08-20T07:23:40.936Z,112.50
2022-08-20T07:24:42.018Z,112.50
2022-08-20T07:25:40.759Z,106.88
2022-08-20T07:26:40.763Z,101.25
2022-08-20T07:27:40.856Z,95.63
2022-08-20T07:28:40.766Z,95.63
2022-08-20T07:29:40.774Z,90.00
2022-08-20T07:30:56.174Z,95.63
2022-08-20T07:31:42.126Z,112.50
2022-08-20T07:32:45.227Z,101.25
2022-08-20T07:33:40.749Z,95.63
2022-08-20T07:34:41.030Z,84.38
2022-08-20T07:35:40.750Z,78.75
2022-08-20T07:36:40.744Z,73.13
2022-08-20T07:37:40.742Z,73.13
2022-08-20T07:38:40.742Z,84.38
2022-08-20T07:39:40.770Z,95.63
2022-08-20T07:40:40.742Z,101.25
2022-08-20T07:41:40.742Z,90.00
2022-08-20T07:42:40.738Z,73.13
2022-08-20T07:43:40.735Z,73.13
2022-08-20T07:44:40.737Z,73.13
2022-08-20T07:45:40.736Z,78.75
2022-08-20T07:46:40.732Z,78.75
2022-08-20T07:47:40.733Z,90.00
2022-08-20T07:48:40.728Z,90.00
2022-08-20T07:49:40.729Z,90.00
2022-08-20T07:50:40.726Z,90.00
2022-08-20T07:51:40.724Z,95.63
2022-08-20T07:52:40.724Z,106.88
2022-08-20T07:53:40.722Z,123.75
2022-08-20T07:54:40.723Z,106.88
2022-08-20T07:55:40.720Z,118.13
2022-08-20T07:56:40.720Z,135.00
2022-08-20T07:57:40.721Z,129.38
2022-08-20T07:58:40.719Z,123.75
2022-08-20T07:59:40.716Z,129.38
2022-08-20T08:00:40.735Z,140.63
2022-08-20T08:01:40.710Z,140.63
2022-08-20T08:02:40.712Z,140.63
2022-08-20T08:03:49.840Z,135.00
2022-08-20T08:04:40.711Z,129.38
2022-08-20T08:05:40.708Z,123.75
2022-08-20T08:06:40.710Z,140.63
2022-08-20T08:07:40.705Z,163.13
2022-08-20T08:08:40.703Z,174.38
2022-08-20T08:09:40.706Z,180.00
2022-08-20T08:10:40.700Z,168.75
2022-08-20T08:11:44.931Z,163.13
2022-08-20T08:12:40.700Z,180.00
2022-08-20T08:13:40.701Z,191.25
2022-08-20T08:14:40.692Z,202.50
2022-08-20T08:15:40.694Z,202.50
2022-08-20T08:16:40.695Z,196.88
2022-08-20T08:17:40.692Z,196.88
2022-08-20T08:18:40.696Z,196.88
2022-08-20T08:19:40.690Z,196.88
2022-08-20T08:20:47.021Z,191.25
2022-08-20T08:21:40.688Z,180.00
2022-08-20T08:22:40.688Z,168.75
2022-08-20T08:23:40.687Z,157.50
2022-08-20T08:24:40.683Z,191.25
2022-08-20T08:25:40.688Z,225.00
2022-08-20T08:26:40.690Z,236.25
2022-08-20T08:27:40.683Z,225.00
2022-08-20T08:28:40.678Z,230.63
2022-08-20T08:29:40.679Z,236.25
2022-08-20T08:30:40.677Z,230.63
2022-08-20T08:31:40.676Z,213.75
2022-08-20T08:32:40.675Z,208.13
2022-08-20T08:33:40.734Z,185.63
2022-08-20T08:34:40.671Z,196.88
2022-08-20T08:35:40.793Z,202.50
2022-08-20T08:36:40.676Z,202.50
2022-08-20T08:37:40.670Z,196.88
2022-08-20T08:38:40.669Z,202.50
2022-08-20T08:39:40.702Z,219.38
2022-08-20T08:40:40.667Z,236.25
2022-08-20T08:41:40.667Z,230.63
2022-08-20T08:42:43.250Z,230.63
2022-08-20T08:43:40.666Z,241.88
2022-08-20T08:44:40.663Z,236.25
2022-08-20T08:45:40.664Z,247.50
2022-08-20T08:46:40.662Z,247.50
2022-08-20T08:47:40.662Z,247.50
2022-08-20T08:48:40.663Z,230.63
2022-08-20T08:49:40.661Z,225.00
2022-08-20T08:50:53.611Z,230.63
2022-08-20T08:51:40.660Z,219.38
2022-08-20T08:52:40.658Z,219.38
2022-08-20T08:53:40.660Z,225.00
2022-08-20T08:54:40.655Z,219.38
2022-08-20T08:55:40.653Z,219.38
2022-08-20T08:56:40.650Z,213.75
2022-08-20T08:57:40.656Z,213.75
2022-08-20T08:58:40.648Z,213.75
2022-08-20T08:59:48.734Z,196.88
2022-08-20T09:00:52.813Z,168.75
2022-08-20T09:01:55.499Z,168.75
2022-08-20T09:02:40.694Z,180.00
2022-08-20T09:03:40.646Z,196.88
2022-08-20T09:04:40.654Z,213.75
2022-08-20T09:05:40.643Z,213.75
2022-08-20T09:06:40.694Z,225.00
2022-08-20T09:07:40.643Z,230.63
2022-08-20T09:08:40.646Z,236.25
2022-08-20T09:09:40.642Z,236.25
2022-08-20T09:10:40.641Z,236.25
2022-08-20T09:11:40.637Z,236.25
2022-08-20T09:12:43.359Z,219.38
2022-08-20T09:13:40.641Z,225.00
2022-08-20T09:14:40.635Z,236.25
2022-08-20T09:15:40.639Z,247.50
2022-08-20T09:16:52.231Z,253.13
2022-08-20T09:17:40.641Z,247.50
2022-08-20T09:18:40.631Z,241.88
2022-08-20T09:19:40.633Z,230.63
2022-08-20T09:20:40.633Z,219.38
2022-08-20T09:21:40.631Z,208.13
2022-08-20T09:22:40.633Z,180.00
2022-08-20T09:23:40.635Z,174.38
2022-08-20T09:24:40.628Z,180.00
2022-08-20T09:25:40.630Z,163.13
2022-08-20T09:26:40.627Z,180.00
2022-08-20T09:27:41.436Z,191.25
2022-08-20T09:28:40.625Z,191.25
2022-08-20T09:29:40.627Z,185.63
2022-08-20T09:30:40.625Z,163.13
2022-08-20T09:31:40.620Z,163.13
2022-08-20T09:32:40.625Z,151.88
2022-08-20T09:33:40.622Z,146.25
2022-08-20T09:34:40.625Z,151.88
2022-08-20T09:35:40.620Z,140.63
2022-08-20T09:36:40.620Z,140.63
2022-08-20T09:37:40.622Z,157.50
2022-08-20T09:38:40.621Z,191.25
2022-08-20T09:39:40.674Z,196.88
2022-08-20T09:40:40.615Z,225.00
2022-08-20T09:41:40.619Z,253.13
2022-08-20T09:42:41.839Z,270.00
2022-08-20T09:43:40.617Z,275.63
2022-08-20T09:44:40.610Z,275.63
2022-08-20T09:45:40.614Z,281.25
2022-08-20T09:46:40.614Z,292.50
2022-08-20T09:47:55.262Z,309.38
2022-08-20T09:48:40.614Z,320.63
2022-08-20T09:49:40.615Z,326.25
2022-08-20T09:50:40.611Z,331.88
2022-08-20T09:51:40.611Z,337.50
2022-08-20T09:52:40.907Z,343.13
2022-08-20T09:53:40.612Z,348.75
2022-08-20T09:54:46.291Z,354.38
2022-08-20T09:55:40.609Z,360.00
2022-08-20T09:56:40.607Z,371.25
2022-08-20T09:57:40.613Z,382.50
2022-08-20T09:58:40.605Z,393.75
2022-08-20T09:59:40.605Z,405.00
2022-08-20T10:00:40.614Z,416.25
2022-08-20T10:01:40.660Z,421.88
2022-08-20T10:02:40.604Z,427.50
2022-08-20T10:03:41.769Z,427.50
2022-08-20T10:04:40.606Z,433.13
2022-08-20T10:05:40.631Z,438.75
2022-08-20T10:06:40.603Z,438.75
2022-08-20T10:07:40.602Z,444.38
2022-08-20T10:08:40.600Z,444.38
2022-08-20T10:09:40.603Z,444.38
2022-08-20T10:10:40.602Z,438.75
2022-08-20T10:11:40.697Z,433.13
2022-08-20T10:12:40.602Z,433.13
2022-08-20T10:13:40.601Z,433.13
2022-08-20T10:14:40.601Z,433.13
2022-08-20T10:15:41.971Z,438.75
2022-08-20T10:16:40.600Z,438.75
2022-08-20T10:17:40.606Z,444.38
2022-08-20T10:18:40.606Z,438.75
2022-08-20T10:19:40.600Z,421.88
2022-08-20T10:20:40.596Z,421.88
2022-08-20T10:21:40.601Z,410.63
2022-08-20T10:22:40.598Z,393.75
2022-08-20T10:23:40.599Z,382.50
2022-08-20T10:24:40.596Z,371.25
2022-08-20T10:25:40.618Z,348.75
2022-08-20T10:26:40.594Z,331.88
2022-08-20T10:27:40.601Z,315.00
2022-08-20T10:28:40.601Z,298.13
2022-08-20T10:29:43.996Z,298.13
2022-08-20T10:30:40.602Z,326.25
2022-08-20T10:31:40.644Z,354.38
2022-08-20T10:32:40.599Z,360.00
2022-08-20T10:33:40.601Z,354.38
2022-08-20T10:34:40.603Z,348.75
2022-08-20T10:35:40.601Z,337.50
2022-08-20T10:36:40.600Z,326.25
2022-08-20T10:37:40.600Z,315.00
2022-08-20T10:38:40.601Z,309.38
2022-08-20T10:39:40.639Z,309.38
2022-08-20T10:40:40.601Z,315.00
2022-08-20T10:41:40.599Z,320.63
2022-08-20T10:42:42.774Z,320.63
2022-08-20T10:43:40.599Z,315.00
2022-08-20T10:44:40.600Z,309.38
2022-08-20T10:45:40.597Z,320.63
2022-08-20T10:46:40.602Z,326.25
2022-08-20T10:47:40.621Z,331.88
2022-08-20T10:48:40.596Z,331.88
2022-08-20T10:49:40.599Z,337.50
2022-08-20T10:50:40.600Z,343.13
2022-08-20T10:51:40.603Z,348.75
2022-08-20T10:52:40.599Z,348.75
2022-08-20T10:53:40.598Z,354.38
2022-08-20T10:54:40.600Z,360.00
2022-08-20T10:55:40.595Z,365.63
2022-08-20T10:56:40.624Z,376.88
2022-08-20T10:57:40.676Z,382.50
2022-08-20T10:58:41.400Z,393.75
2022-08-20T10:59:40.621Z,405.00
2022-08-20T11:00:40.599Z,410.63
2022-08-20T11:01:40.675Z,410.63
2022-08-20T11:02:40.600Z,416.25
2022-08-20T11:03:40.598Z,427.50
2022-08-20T11:04:40.600Z,416.25
2022-08-20T11:05:40.599Z,416.25
2022-08-20T11:06:40.598Z,416.25
2022-08-20T11:07:52.829Z,416.25
2022-08-20T11:08:40.599Z,421.88
2022-08-20T11:09:40.596Z,427.50
2022-08-20T11:10:40.598Z,433.13
2022-08-20T11:11:40.600Z,433.13
2022-08-20T11:12:40.601Z,427.50
2022-08-20T11:13:40.600Z,416.25
2022-08-20T11:14:40.595Z,405.00
2022-08-20T11:15:40.598Z,399.38
2022-08-20T11:16:40.611Z,393.75
2022-08-20T11:17:41.473Z,393.75
2022-08-20T11:18:43.763Z,393.75
2022-08-20T11:19:40.818Z,393.75
2022-08-20T11:20:40.925Z,388.13
2022-08-20T11:21:40.605Z,382.50
2022-08-20T11:22:40.603Z,376.88
2022-08-20T11:23:40.616Z,371.25
2022-08-20T11:24:40.602Z,365.63
2022-08-20T11:25:40.622Z,360.00
2022-08-20T11:26:40.607Z,348.75
2022-08-20T11:27:40.621Z,326.25
2022-08-20T11:28:40.614Z,303.75
2022-08-20T11:29:40.605Z,281.25
2022-08-20T11:30:40.603Z,264.38
2022-08-20T11:31:40.626Z,247.50
2022-08-20T11:32:40.602Z,236.25
2022-08-20T11:33:40.604Z,230.63
2022-08-20T11:34:40.628Z,225.00
2022-08-20T11:37:12.767Z,219.38
2022-08-20T11:38:12.755Z,219.38
2022-08-20T11:39:12.766Z,219.38
2022-08-20T11:40:12.910Z,219.38
2022-08-20T11:41:12.848Z,219.38
2022-08-20T11:42:12.755Z,213.75
2022-08-20T11:43:15.581Z,208.13
2022-08-20T11:44:20.126Z,202.50
2022-08-20T11:45:12.752Z,191.25
2022-08-20T11:46:12.755Z,191.25
2022-08-20T11:47:12.770Z,185.63
2022-08-20T11:48:12.760Z,185.63
2022-08-20T11:49:12.758Z,185.63
2022-08-20T11:50:12.761Z,191.25
2022-08-20T11:51:12.755Z,196.88
2022-08-20T11:52:12.755Z,208.13
2022-08-20T11:53:12.751Z,219.38
2022-08-20T11:54:12.757Z,230.63
2022-08-20T11:55:12.779Z,241.88
2022-08-20T11:56:13.430Z,253.13
2022-08-20T11:57:12.753Z,264.38
2022-08-20T11:58:12.753Z,264.38
2022-08-20T11:59:12.828Z,270.00
2022-08-20T12:00:12.764Z,275.63
2022-08-20T12:01:12.752Z,281.25
2022-08-20T12:02:12.815Z,281.25
2022-08-20T12:03:12.792Z,281.25
2022-08-20T12:04:12.755Z,275.63
2022-08-20T12:05:12.828Z,270.00
2022-08-20T12:06:12.751Z,270.00
2022-08-20T12:07:12.751Z,270.00
2022-08-20T12:08:27.636Z,275.63
2022-08-20T12:09:12.748Z,281.25
2022-08-20T12:10:12.752Z,281.25
2022-08-20T12:11:12.753Z,270.00
2022-08-20T12:12:12.750Z,264.38
2022-08-20T12:13:12.751Z,253.13
2022-08-20T12:14:12.751Z,247.50
2022-08-20T12:15:12.749Z,247.50
2022-08-20T12:16:12.753Z,247.50
2022-08-20T12:17:12.751Z,253.13
2022-08-20T12:18:12.751Z,253.13
2022-08-20T12:19:12.749Z,253.13
2022-08-20T12:20:12.750Z,253.13
2022-08-20T12:21:12.750Z,258.75
2022-08-20T12:22:23.724Z,258.75
2022-08-20T12:23:12.843Z,264.38
2022-08-20T12:24:12.752Z,264.38
2022-08-20T12:25:12.750Z,270.00
2022-08-20T12:26:12.748Z,270.00
2022-08-20T12:27:12.748Z,275.63
2022-08-20T12:28:12.749Z,270.00
2022-08-20T12:29:12.747Z,270.00
2022-08-20T12:30:12.754Z,264.38
2022-08-20T12:31:12.753Z,253.13
2022-08-20T12:32:12.750Z,247.50
2022-08-20T12:33:12.749Z,241.88
2022-08-20T12:34:12.748Z,241.88
2022-08-20T12:35:12.754Z,247.50
2022-08-20T12:36:12.749Z,253.13
2022-08-20T12:37:15.411Z,258.75
2022-08-20T12:38:12.748Z,264.38
2022-08-20T12:39:12.752Z,264.38
2022-08-20T12:40:12.878Z,270.00
2022-08-20T12:41:12.749Z,270.00
2022-08-20T12:42:12.746Z,270.00
2022-08-20T12:43:12.747Z,275.63
2022-08-20T12:44:13.241Z,275.63
2022-08-20T12:45:12.751Z,281.25
2022-08-20T12:46:12.748Z,286.88
2022-08-20T12:47:12.750Z,286.88
2022-08-20T12:48:12.746Z,286.88
2022-08-20T12:49:12.744Z,286.88
2022-08-20T12:50:12.747Z,286.88
2022-08-20T12:51:12.748Z,281.25
2022-08-20T12:52:12.747Z,275.63